Mapleton, Utah
Current Conditions -  °F | °C
As of 1:55 PM on Friday 28 Nov 2014 (Local Time) from KPVU Reporting Station
Broken Clouds Broken Clouds  
Wind Chill: 63°   Ceiling: 16000
Heat Index: 63°   Visibility: 15mi
Dew Point: 25°   Wind: 0mph
Humidity: 24%   Direction: NA
Pressure: 29.95"   Gusts: NA
Location:  40.13°N, 111.58°W
Report Text: KPVU 282055Z 00000KT 15SM BKN160 17/M04 A2995
Loading
Personal Weather Stations






























Interactive Weather Map New forecast layout! Learn more

10-Day Weather Forecast

Advertisements
Track Severe Weather on mobile